Time;durP1;ratioP1;P1;durP2;ratioP2;P2;SDS_P1;SDS_P2;PMS_P1;PMS_P2;Temp;Humidity;BMP_temperature;BMP_pressure;BME280_temperature;BME280_humidity;BME280_pressure;Samples;Min_cycle;Max_cycle;Signal;HPM_P1;HPM_P2
2022/06/28 00:00:13;;;;;;;11.95;2.15;;;;;;;12.34;99.14;99787.41;5067220;28;20449;-79
2022/06/28 00:02:39;;;;;;;12.95;2.47;;;;;;;12.32;99.19;99794.72;5068716;28;20028;-79
2022/06/28 00:05:06;;;;;;;16.17;2.58;;;;;;;12.34;99.62;99789.25;5051031;28;20041;-79
2022/06/28 00:07:32;;;;;;;14.68;2.38;;;;;;;12.32;99.88;99793.88;5040938;28;20044;-79
2022/06/28 00:09:58;;;;;;;14.57;2.33;;;;;;;12.33;99.93;99788.41;5042723;28;20033;-80
2022/06/28 00:12:24;;;;;;;15.57;3.03;;;;;;;12.35;99.66;99788.22;5044094;28;20421;-79
2022/06/28 00:17:34;;;;;;;17.15;2.50;;;;;;;12.33;100.00;99783.09;5062755;28;20136;-73
2022/06/28 00:20:00;;;;;;;18.73;2.70;;;;;;;12.33;100.00;99775.16;5069144;28;20060;-74
2022/06/28 00:22:26;;;;;;;24.20;2.75;;;;;;;12.31;100.00;99771.84;5020545;28;20041;-79
2022/06/28 00:24:51;;;;;;;14.45;2.70;;;;;;;12.32;100.00;99775.31;5053594;28;20033;-79
2022/06/28 00:27:18;;;;;;;13.40;2.47;;;;;;;12.32;100.00;99777.97;5070255;28;20552;-79
2022/06/28 00:29:44;;;;;;;17.83;2.15;;;;;;;12.30;100.00;99769.38;5051846;28;20032;-78
2022/06/28 00:32:10;;;;;;;9.20;1.92;;;;;;;12.28;100.00;99770.38;5055167;28;20090;-79
2022/06/28 00:34:36;;;;;;;14.68;2.47;;;;;;;12.26;100.00;99764.41;5051932;28;20480;-79
2022/06/28 00:37:01;;;;;;;11.32;2.45;;;;;;;12.25;100.00;99761.94;5062637;28;20036;-78
2022/06/28 00:39:27;;;;;;;12.40;1.90;;;;;;;12.23;100.00;99756.81;5064983;28;20094;-78
2022/06/28 00:41:53;;;;;;;11.02;2.13;;;;;;;12.22;100.00;99747.22;5065274;28;20036;-79
2022/06/28 00:44:21;;;;;;;11.80;1.98;;;;;;;12.25;100.00;99751.34;5047152;28;20060;-78
2022/06/28 00:46:48;;;;;;;7.38;1.50;;;;;;;12.24;100.00;99747.03;5067065;28;20112;-79
2022/06/28 00:49:14;;;;;;;5.60;1.23;;;;;;;12.23;100.00;99743.56;5052145;28;20423;-79
2022/06/28 00:51:40;;;;;;;11.25;2.20;;;;;;;12.25;100.00;99746.03;5050831;28;20032;-79
2022/06/28 00:54:07;;;;;;;10.57;1.55;;;;;;;12.24;100.00;99737.28;5050110;28;20079;-79
2022/06/28 00:56:33;;;;;;;7.50;1.52;;;;;;;12.24;100.00;99729.34;5057494;28;20476;-79
2022/06/28 00:58:59;;;;;;;9.05;1.40;;;;;;;12.25;100.00;99728.31;5069651;28;20558;-78
2022/06/28 01:01:26;;;;;;;6.30;1.30;;;;;;;12.27;100.00;99718.38;5069697;28;20119;-78
2022/06/28 01:03:54;;;;;;;9.20;2.55;;;;;;;12.27;100.00;99726.34;5034195;28;20028;-78
2022/06/28 01:06:20;;;;;;;11.82;1.70;;;;;;;12.29;100.00;99710.25;5069481;28;20496;-78
2022/06/28 01:08:46;;;;;;;8.30;1.60;;;;;;;12.31;100.00;99708.25;5068886;28;20040;-78
2022/06/28 01:11:19;;;;;;;6.97;1.25;;;;;;;12.29;100.00;99707.63;5055041;28;20393;-78
2022/06/28 01:13:53;;;;;;;8.27;2.25;;;;;;;12.30;100.00;99709.25;5037147;28;20033;-78
2022/06/28 01:16:22;;;;;;;9.43;1.63;;;;;;;12.29;100.00;99697.00;5035811;28;20376;-79
2022/06/28 01:18:50;;;;;;;6.95;0.85;;;;;;;12.33;100.00;99708.06;5066738;28;20071;-79
2022/06/28 01:21:34;;;;;;;10.52;1.67;;;;;;;12.32;100.00;99701.97;5068731;28;20032;-79
2022/06/28 01:24:00;;;;;;;8.38;1.23;;;;;;;12.33;100.00;99679.75;5053508;28;20043;-79
2022/06/28 01:26:47;;;;;;;7.72;1.50;;;;;;;12.33;100.00;99679.75;5069592;28;20028;-74
2022/06/28 01:29:15;;;;;;;7.28;1.42;;;;;;;12.35;100.00;99677.75;5045683;28;20075;-74
2022/06/28 01:31:53;;;;;;;5.30;1.00;;;;;;;12.36;100.00;99673.31;5049399;28;20097;-79
2022/06/28 01:34:20;;;;;;;8.45;1.25;;;;;;;12.34;100.00;99668.16;5036147;28;20082;-79
2022/06/28 01:36:46;;;;;;;6.65;1.25;;;;;;;12.37;100.00;99674.94;5033769;28;20082;-79
2022/06/28 01:39:14;;;;;;;9.05;1.40;;;;;;;12.36;100.00;99665.34;5053071;28;20462;-79
2022/06/28 01:41:40;;;;;;;3.25;0.88;;;;;;;12.38;100.00;99660.69;5068071;28;20040;-79
2022/06/28 01:44:14;;;;;;;3.85;0.63;;;;;;;12.37;100.00;99653.75;5018816;28;20054;-79
2022/06/28 01:47:02;;;;;;;3.80;1.13;;;;;;;12.33;100.00;99652.41;5002983;28;20056;-79
2022/06/28 01:49:54;;;;;;;4.50;1.00;;;;;;;12.35;100.00;99658.38;5043936;28;20048;-79
2022/06/28 01:52:22;;;;;;;3.55;0.70;;;;;;;12.35;100.00;99664.50;5033908;28;20427;-78
2022/06/28 01:54:48;;;;;;;6.25;1.30;;;;;;;12.35;100.00;99656.56;5067945;28;20024;-79
2022/06/28 01:57:16;;;;;;;7.00;1.00;;;;;;;12.38;100.00;99648.25;5062980;28;20032;-79
2022/06/28 01:59:52;;;;;;;6.57;1.35;;;;;;;12.35;100.00;99635.38;5048874;28;20119;-79
2022/06/28 02:02:38;;;;;;;2.72;0.70;;;;;;;12.35;100.00;99635.38;5068906;28;20039;-79
2022/06/28 02:05:36;;;;;;;5.88;1.10;;;;;;;12.36;100.00;99629.06;5046884;28;20106;-78
2022/06/28 02:08:02;;;;;;;3.78;0.80;;;;;;;12.40;100.00;99626.88;5050931;28;20068;-78
2022/06/28 09:22:50;;;;;;;3.72;1.10;;;;;;;15.04;100.00;99217.69;5031060;28;20398;-74
2022/06/28 09:25:28;;;;;;;3.17;0.80;;;;;;;15.14;99.94;99217.28;5046459;28;20037;-73
2022/06/28 09:28:02;;;;;;;4.55;0.90;;;;;;;15.32;99.29;99221.97;5042262;28;20041;-80
2022/06/28 09:30:30;;;;;;;2.55;1.02;;;;;;;15.49;97.78;99217.06;5032057;28;20057;-80
2022/06/28 09:32:57;;;;;;;4.72;0.90;;;;;;;15.62;96.44;99212.72;5050660;28;20028;-80
2022/06/28 09:35:25;;;;;;;3.40;0.63;;;;;;;15.68;95.49;99214.56;5057615;28;20059;-80
2022/06/28 09:37:52;;;;;;;7.95;1.33;;;;;;;15.72;93.58;99205.13;5039615;28;20098;-73
2022/06/28 09:40:25;;;;;;;8.65;1.33;;;;;;;15.72;92.26;99223.75;5046050;28;20048;-73
2022/06/28 09:43:14;;;;;;;5.22;1.42;;;;;;;15.71;89.46;99215.97;5050300;28;20040;-80
2022/06/28 09:45:42;;;;;;;5.30;1.77;;;;;;;15.77;88.74;99220.47;5064263;28;20045;-80
2022/06/28 09:48:14;;;;;;;9.15;1.67;;;;;;;15.79;88.88;99222.94;5065173;28;20040;-80
2022/06/28 09:50:40;;;;;;;7.53;1.33;;;;;;;15.73;87.26;99222.75;5048048;28;20027;-80
2022/06/28 09:53:07;;;;;;;4.90;1.35;;;;;;;15.71;87.11;99214.16;5050198;28;20488;-80
2022/06/28 09:55:35;;;;;;;6.10;1.80;;;;;;;15.64;85.90;99208.00;5049926;28;20029;-80
2022/06/28 09:58:02;;;;;;;8.02;1.88;;;;;;;15.59;85.71;99205.97;5043468;28;20438;-80
2022/06/28 10:00:29;;;;;;;8.75;2.10;;;;;;;15.55;85.47;99211.91;5040514;28;20565;-80
2022/06/28 10:02:57;;;;;;;11.98;2.78;;;;;;;15.59;85.92;99207.81;5049973;28;20033;-80
2022/06/28 10:05:26;;;;;;;9.15;1.92;;;;;;;15.56;85.26;99206.38;5048717;28;20068;-80
2022/06/28 10:07:52;;;;;;;9.50;1.85;;;;;;;15.56;85.24;99210.91;5039105;28;20488;-80
2022/06/28 10:10:22;;;;;;;10.95;2.05;;;;;;;15.46;84.08;99198.84;5064441;28;20035;-80
2022/06/28 10:15:36;;;;;;;10.88;2.13;;;;;;;15.46;84.35;99200.69;5049430;28;20108;-80
2022/06/28 10:18:16;;;;;;;15.50;3.15;;;;;;;15.40;83.72;99209.50;5063989;28;20116;-80
2022/06/28 10:20:46;;;;;;;13.15;2.67;;;;;;;15.34;83.63;99190.66;5051155;28;20523;-80
2022/06/28 10:23:37;;;;;;;8.70;2.60;;;;;;;15.28;83.41;99194.13;5019957;28;20028;-80
2022/06/28 10:26:19;;;;;;;11.18;2.90;;;;;;;15.29;83.41;99197.63;5034221;28;20048;-80
2022/06/28 10:29:04;;;;;;;11.15;2.45;;;;;;;15.33;83.67;99193.53;5028132;28;20077;-80
2022/06/28 10:31:30;;;;;;;11.80;2.75;;;;;;;15.38;83.71;99191.06;5071333;28;20188;-80
2022/06/28 10:34:02;;;;;;;12.75;2.42;;;;;;;15.48;83.81;99186.13;5035419;28;20388;-80
2022/06/28 10:36:49;;;;;;;14.80;3.13;;;;;;;15.56;83.65;99185.06;5063700;28;20071;-80
2022/06/28 10:39:21;;;;;;;13.82;3.08;;;;;;;15.57;82.46;99186.72;5060291;28;20044;-81
2022/06/28 10:42:00;;;;;;;11.02;3.10;;;;;;;15.70;82.84;99180.53;5067121;28;20036;-74
2022/06/28 10:44:32;;;;;;;15.10;2.85;;;;;;;15.87;82.56;99182.75;5066930;28;20033;-74
2022/06/28 10:47:01;;;;;;;13.00;2.95;;;;;;;16.01;82.12;99166.75;5076184;28;20094;-80
2022/06/28 10:49:52;;;;;;;14.70;3.22;;;;;;;16.06;80.08;99166.91;5040152;28;20044;-80
2022/06/28 10:52:23;;;;;;;18.08;3.25;;;;;;;16.20;80.75;99163.16;5049945;28;20083;-80
2022/06/28 10:54:51;;;;;;;16.20;3.15;;;;;;;16.41;81.50;99141.69;5073515;28;20043;-80
2022/06/28 10:57:20;;;;;;;17.40;3.50;;;;;;;16.68;80.17;99157.50;5054454;28;20397;-80
2022/06/28 10:59:48;;;;;;;10.35;2.38;;;;;;;16.98;80.10;99157.69;5064495;28;20040;-80
2022/06/28 11:02:14;;;;;;;17.30;3.47;;;;;;;17.22;79.48;99136.56;5050931;28;20569;-80
2022/06/28 11:04:40;;;;;;;13.35;2.88;;;;;;;17.32;78.77;99121.88;5055250;28;20107;-80
2022/06/28 11:07:20;;;;;;;14.68;2.80;;;;;;;17.06;76.08;99140.56;5000815;28;20510;-75
2022/06/28 11:10:03;;;;;;;15.40;3.53;;;;;;;16.67;75.07;99145.22;5055773;28;20171;-74
2022/06/28 11:12:31;;;;;;;11.63;2.55;;;;;;;16.47;77.54;99149.66;5066108;28;20032;-74
2022/06/28 11:14:59;;;;;;;15.77;2.85;;;;;;;16.32;77.92;99157.16;5038731;28;20065;-74
2022/06/28 11:17:27;;;;;;;9.70;2.85;;;;;;;16.17;78.53;99162.75;5068636;28;20540;-81
2022/06/28 11:20:01;;;;;;;12.93;2.72;;;;;;;15.96;78.76;99189.47;5053954;28;20042;-80
2022/06/28 11:22:31;;;;;;;16.10;2.75;;;;;;;15.65;79.93;99167.03;5054770;28;20443;-80
2022/06/28 11:25:05;;;;;;;12.27;2.58;;;;;;;15.29;82.05;99192.31;5061974;28;20070;-80
2022/06/28 11:27:32;;;;;;;14.60;2.55;;;;;;;14.98;84.03;99198.06;5048091;28;20067;-80
2022/06/28 11:30:01;;;;;;;10.85;2.90;;;;;;;14.81;85.61;99205.59;5053744;28;20147;-80
2022/06/28 11:32:33;;;;;;;12.52;3.22;;;;;;;14.69;87.04;99194.72;5054114;28;20044;-80
2022/06/28 11:35:07;;;;;;;13.98;3.17;;;;;;;14.67;89.15;99194.09;5045186;28;20115;-80
2022/06/28 11:37:50;;;;;;;15.60;3.35;;;;;;;14.76;90.43;99187.53;5054160;28;20042;-80
2022/06/28 11:40:17;;;;;;;18.08;3.28;;;;;;;14.81;91.25;99189.63;5051248;28;20135;-80
2022/06/28 11:42:45;;;;;;;10.32;2.35;;;;;;;14.88;91.74;99190.47;5067765;28;20028;-81
2022/06/28 11:45:13;;;;;;;9.00;1.52;;;;;;;14.93;90.93;99186.38;5072362;28;20032;-81
2022/06/28 11:47:44;;;;;;;9.73;1.60;;;;;;;15.00;88.99;99184.53;5070414;28;20040;-80
2022/06/28 11:50:16;;;;;;;9.05;1.75;;;;;;;15.18;88.93;99178.59;5069635;28;20111;-80
2022/06/28 11:52:47;;;;;;;6.20;1.35;;;;;;;15.29;88.22;99181.66;5049132;28;20024;-74
2022/06/28 11:55:14;;;;;;;9.18;1.77;;;;;;;15.43;88.17;99179.78;5052651;28;20046;-74
2022/06/28 11:57:40;;;;;;;8.13;2.08;;;;;;;15.66;87.90;99174.00;5070236;28;20107;-80
2022/06/28 12:00:17;;;;;;;8.67;2.27;;;;;;;15.83;87.45;99179.66;5054393;28;20040;-81
2022/06/28 12:02:51;;;;;;;8.65;1.55;;;;;;;15.94;86.68;99177.41;5048966;28;20557;-80
2022/06/28 12:05:31;;;;;;;8.10;2.10;;;;;;;16.05;85.90;99182.09;5057115;28;20040;-81
2022/06/28 12:07:58;;;;;;;14.50;1.92;;;;;;;16.06;85.69;99181.06;5050691;28;20824;-81
2022/06/28 12:10:30;;;;;;;11.73;3.08;;;;;;;16.05;84.93;99171.44;5037955;28;20481;-81
2022/06/28 12:12:58;;;;;;;10.45;2.22;;;;;;;16.20;85.36;99172.97;5068804;28;20037;-81
2022/06/28 12:15:31;;;;;;;10.05;2.25;;;;;;;16.20;83.54;99178.31;5057275;28;20028;-80
2022/06/28 12:18:06;;;;;;;14.93;2.28;;;;;;;16.41;84.03;99179.84;5070692;28;20032;-80
2022/06/28 12:20:34;;;;;;;12.50;2.40;;;;;;;16.65;83.36;99181.94;5069924;28;20039;-79
2022/06/28 12:23:02;;;;;;;13.48;3.90;;;;;;;16.78;83.06;99165.88;5071165;28;20044;-80
2022/06/28 12:25:29;;;;;;;15.45;3.13;;;;;;;16.90;82.11;99173.16;5054986;28;20029;-81
2022/06/28 12:27:54;;;;;;;13.35;2.70;;;;;;;17.09;81.33;99184.72;5055506;28;20431;-81
2022/06/28 12:30:21;;;;;;;12.32;2.20;;;;;;;17.01;79.53;99171.66;5050484;28;20120;-80
2022/06/28 12:32:52;;;;;;;18.67;2.83;;;;;;;16.84;78.53;99183.69;5054692;28;20078;-81
2022/06/28 12:35:29;;;;;;;10.88;1.83;;;;;;;16.94;78.43;99167.19;5052672;28;20044;-82
2022/06/28 12:38:00;;;;;;;10.48;2.58;;;;;;;17.03;76.69;99178.38;5033227;28;20098;-81
2022/06/28 12:40:26;;;;;;;12.23;1.95;;;;;;;17.25;76.72;99174.53;5057781;28;20032;-81
2022/06/28 12:42:52;;;;;;;14.82;2.70;;;;;;;17.28;74.95;99182.13;5034055;28;20044;-81
2022/06/28 12:45:18;;;;;;;10.48;2.20;;;;;;;17.34;74.65;99167.88;5048021;28;20373;-81
2022/06/28 12:47:44;;;;;;;10.65;1.95;;;;;;;17.27;74.10;99189.31;5062729;28;20044;-81
2022/06/28 12:50:13;;;;;;;10.68;1.42;;;;;;;17.09;73.50;99201.56;5052065;28;20135;-80
2022/06/28 12:52:40;;;;;;;13.45;2.67;;;;;;;16.96;73.65;99209.66;5048231;28;20066;-74
2022/06/28 12:55:07;;;;;;;6.80;2.05;;;;;;;16.77;73.14;99209.56;5068010;28;20055;-73
2022/06/28 12:57:33;;;;;;;7.38;1.40;;;;;;;16.62;73.52;99217.88;5048891;28;20064;-81
2022/06/28 13:00:04;;;;;;;9.57;1.20;;;;;;;16.68;74.61;99205.53;5068086;28;20059;-81
2022/06/28 13:02:31;;;;;;;8.50;1.80;;;;;;;16.84;74.70;99191.69;5071371;28;20043;-81
2022/06/28 13:04:56;;;;;;;9.32;1.83;;;;;;;16.97;74.45;99203.28;5067466;28;20040;-82
2022/06/28 13:07:25;;;;;;;6.43;1.00;;;;;;;16.85;74.09;99193.31;5036464;28;20203;-81
2022/06/28 13:09:51;;;;;;;6.80;1.15;;;;;;;16.73;73.72;99206.53;5059962;28;20063;-81
2022/06/28 13:12:17;;;;;;;5.38;1.60;;;;;;;16.99;73.82;99199.34;5063367;28;20037;-81
2022/06/28 13:14:48;;;;;;;3.13;0.82;;;;;;;17.20;72.95;99209.91;5068326;28;20028;-81
2022/06/28 13:17:14;;;;;;;7.88;1.10;;;;;;;17.35;72.30;99212.22;5052026;28;20029;-81
2022/06/28 13:19:39;;;;;;;6.57;1.27;;;;;;;17.57;72.10;99201.13;5067147;28;20056;-80
2022/06/28 13:22:05;;;;;;;6.13;1.20;;;;;;;17.72;71.77;99203.44;5069167;28;20071;-81
2022/06/28 13:24:32;;;;;;;7.35;1.40;;;;;;;17.81;70.86;99222.66;5035068;28;20582;-80
2022/06/28 13:26:58;;;;;;;6.15;1.25;;;;;;;17.80;69.04;99210.34;5052706;28;20473;-81
2022/06/28 13:29:24;;;;;;;6.55;1.13;;;;;;;17.83;68.72;99205.38;5048699;28;20089;-81
2022/06/28 13:31:50;;;;;;;6.97;1.45;;;;;;;18.00;68.53;99207.44;5052519;28;20032;-81
2022/06/28 13:34:17;;;;;;;5.03;0.80;;;;;;;18.12;67.20;99204.88;5070878;28;20064;-81
2022/06/28 13:36:43;;;;;;;4.97;0.70;;;;;;;18.15;66.64;99204.41;5042641;28;20052;-80
2022/06/28 13:39:09;;;;;;;6.10;0.98;;;;;;;18.00;65.94;99220.00;5046907;28;20032;-81
2022/06/28 13:41:35;;;;;;;6.82;1.02;;;;;;;17.84;66.65;99224.88;5065956;28;20025;-80
2022/06/28 13:44:00;;;;;;;6.03;0.82;;;;;;;17.66;67.43;99209.69;5071030;28;20539;-81
2022/06/28 13:46:26;;;;;;;8.05;1.00;;;;;;;17.51;67.61;99221.53;5052775;28;20043;-81
2022/06/28 13:48:52;;;;;;;9.25;1.00;;;;;;;17.50;67.66;99230.59;5069724;28;20040;-81
2022/06/28 13:51:18;;;;;;;3.55;1.02;;;;;;;17.82;67.72;99224.31;5052682;28;20479;-81
2022/06/28 13:53:44;;;;;;;7.43;1.42;;;;;;;17.90;66.69;99217.84;5052126;28;20504;-81
2022/06/28 13:56:10;;;;;;;4.55;1.17;;;;;;;17.79;66.57;99214.88;5048708;28;20033;-81
2022/06/28 13:58:36;;;;;;;4.78;0.90;;;;;;;17.67;65.96;99197.94;5068779;28;20041;-81
2022/06/28 14:01:02;;;;;;;6.10;0.80;;;;;;;17.53;65.21;99216.81;5066494;28;20060;-81
2022/06/28 14:03:30;;;;;;;3.42;1.00;;;;;;;17.51;65.29;99213.53;5070108;28;20073;-81
2022/06/28 14:05:56;;;;;;;5.10;1.10;;;;;;;17.42;64.72;99212.19;5053168;28;20037;-81
2022/06/28 14:08:24;;;;;;;7.95;1.00;;;;;;;17.44;65.09;99205.56;5069095;28;20029;-82
2022/06/28 14:10:52;;;;;;;5.47;1.08;;;;;;;17.43;65.23;99209.28;5064812;28;20060;-81
2022/06/28 14:13:22;;;;;;;6.68;1.45;;;;;;;17.40;65.48;99220.41;5061192;28;20086;-81
2022/06/28 14:15:48;;;;;;;5.22;1.00;;;;;;;17.35;66.33;99223.75;5051641;28;20067;-81
2022/06/28 14:18:14;;;;;;;3.88;0.82;;;;;;;17.37;66.35;99204.81;5052223;28;20024;-81
2022/06/28 14:20:40;;;;;;;9.32;1.25;;;;;;;17.34;66.90;99215.94;5070157;28;20058;-80
2022/06/28 14:23:06;;;;;;;10.52;1.20;;;;;;;17.45;67.49;99215.22;5054083;28;20070;-81
2022/06/28 14:25:32;;;;;;;6.53;1.00;;;;;;;17.48;66.90;99221.97;5073953;28;20025;-81
2022/06/28 14:27:58;;;;;;;6.00;0.88;;;;;;;17.54;66.73;99220.28;5055894;28;20585;-81
2022/06/28 14:30:24;;;;;;;4.47;1.08;;;;;;;17.56;66.36;99218.19;5054705;28;20036;-81
2022/06/28 14:32:50;;;;;;;7.22;1.17;;;;;;;17.62;66.46;99225.34;5072046;28;20032;-81
2022/06/28 14:35:15;;;;;;;5.72;1.13;;;;;;;17.79;66.31;99235.44;5067249;28;20043;-81
2022/06/28 14:37:41;;;;;;;7.07;0.95;;;;;;;17.83;64.99;99224.09;5069709;28;20040;-81
2022/06/28 14:40:08;;;;;;;6.10;0.80;;;;;;;17.75;64.07;99239.59;5071864;28;20432;-81
2022/06/28 14:42:34;;;;;;;3.40;0.75;;;;;;;17.79;63.80;99240.81;5055266;28;20040;-81
2022/06/28 14:45:00;;;;;;;4.10;0.60;;;;;;;17.80;62.87;99242.44;5070826;28;20393;-81
2022/06/28 14:47:25;;;;;;;6.05;0.93;;;;;;;17.71;63.68;99249.94;5055443;28;20036;-80
2022/06/28 14:49:51;;;;;;;4.80;1.00;;;;;;;17.69;64.11;99235.97;5035170;28;20036;-81
2022/06/28 14:52:19;;;;;;;5.22;1.15;;;;;;;17.60;64.28;99251.44;5044047;28;20032;-81
2022/06/28 14:54:47;;;;;;;6.57;1.15;;;;;;;17.59;64.54;99253.31;5055439;28;20420;-81
2022/06/28 14:57:13;;;;;;;8.60;1.45;;;;;;;17.57;64.54;99251.88;5055399;28;20067;-81
2022/06/28 14:59:39;;;;;;;7.78;1.40;;;;;;;17.55;64.36;99245.97;5064415;28;20875;-80
2022/06/28 15:02:06;;;;;;;9.25;1.42;;;;;;;17.54;64.79;99242.47;5064037;28;20033;-80
2022/06/28 15:04:31;;;;;;;6.97;1.20;;;;;;;17.56;65.35;99250.25;5069755;28;20032;-81
2022/06/28 15:06:57;;;;;;;7.38;1.50;;;;;;;17.43;65.49;99249.34;5062978;28;20060;-81
2022/06/28 15:09:23;;;;;;;8.15;1.58;;;;;;;17.44;65.56;99242.16;5068855;28;20033;-81
2022/06/28 15:11:49;;;;;;;5.55;1.48;;;;;;;17.78;65.16;99239.16;5069322;28;20792;-81
2022/06/28 15:14:15;;;;;;;15.75;2.40;;;;;;;17.99;64.36;99251.25;5045043;28;20320;-81
2022/06/28 15:16:41;;;;;;;9.10;1.40;;;;;;;18.07;63.37;99240.28;5066389;28;20017;-74
2022/06/28 15:19:08;;;;;;;9.90;1.33;;;;;;;18.04;63.18;99242.56;5050767;28;20039;-74
2022/06/28 15:32:31;;;;;;;6.05;1.20;;;;;;;17.40;64.18;99248.97;5053111;28;20370;-81
2022/06/28 15:34:57;;;;;;;9.18;2.15;;;;;;;17.27;64.63;99265.91;5066241;28;20036;-80
2022/06/28 15:37:23;;;;;;;8.15;1.33;;;;;;;17.21;64.90;99273.78;5036574;28;20025;-80
2022/06/28 15:39:49;;;;;;;10.43;1.30;;;;;;;17.18;64.86;99263.53;4988062;28;20479;-81
2022/06/28 15:42:14;;;;;;;8.48;1.45;;;;;;;17.27;64.83;99272.09;5038643;28;20056;-81
2022/06/28 15:44:42;;;;;;;8.23;1.35;;;;;;;17.45;64.80;99274.00;5051822;28;20036;-81
2022/06/28 15:47:08;;;;;;;11.20;1.60;;;;;;;17.56;64.60;99275.13;5042996;28;20116;-81
2022/06/28 15:49:34;;;;;;;8.73;1.40;;;;;;;17.56;64.57;99272.47;5069183;28;20107;-80
2022/06/28 15:52:00;;;;;;;10.75;1.30;;;;;;;17.43;64.71;99270.72;5035997;28;20040;-81
2022/06/28 15:54:25;;;;;;;9.00;1.33;;;;;;;17.29;65.08;99261.19;5065151;28;20039;-81
2022/06/28 15:56:51;;;;;;;8.85;1.17;;;;;;;17.15;65.19;99263.16;5037349;28;20033;-80
2022/06/28 15:59:17;;;;;;;6.97;1.20;;;;;;;16.97;65.78;99246.00;5049054;28;20028;-81
2022/06/28 16:01:43;;;;;;;8.38;1.23;;;;;;;16.85;66.21;99277.91;5043487;28;20551;-80
2022/06/28 16:04:09;;;;;;;6.60;1.38;;;;;;;16.82;66.76;99264.97;5068082;28;20056;-81
2022/06/28 16:06:35;;;;;;;10.93;1.42;;;;;;;17.07;67.23;99266.88;5067460;28;20048;-80
2022/06/28 16:09:01;;;;;;;6.75;1.25;;;;;;;17.33;66.73;99265.88;5071596;28;20024;-80
2022/06/28 16:11:27;;;;;;;5.88;1.20;;;;;;;17.62;66.59;99262.75;5054189;28;20404;-81
2022/06/28 16:13:54;;;;;;;7.85;1.15;;;;;;;17.81;66.09;99257.41;5069235;28;20062;-81
2022/06/28 16:16:21;;;;;;;8.25;1.25;;;;;;;17.94;65.84;99264.47;5054021;28;20036;-81
2022/06/28 16:18:47;;;;;;;7.88;1.60;;;;;;;18.03;65.90;99259.66;5070153;28;20040;-81
2022/06/28 16:21:13;;;;;;;6.82;1.65;;;;;;;17.96;64.94;99260.53;5060535;28;20053;-75
2022/06/28 16:23:39;;;;;;;5.30;1.33;;;;;;;17.92;64.98;99251.34;5047979;28;20032;-75
2022/06/28 16:26:05;;;;;;;12.05;2.00;;;;;;;17.83;64.66;99261.50;5060262;28;20059;-75
2022/06/28 16:28:31;;;;;;;7.47;1.30;;;;;;;17.78;64.93;99265.88;5071268;28;20064;-74
2022/06/28 16:30:57;;;;;;;8.07;2.20;;;;;;;17.92;64.91;99261.19;5070432;28;20051;-75
2022/06/28 16:33:23;;;;;;;7.47;1.17;;;;;;;17.94;64.49;99262.63;5070166;28;20028;-75
2022/06/28 16:35:50;;;;;;;5.68;1.35;;;;;;;17.96;64.09;99263.19;5051215;28;20418;-80
2022/06/28 16:38:16;;;;;;;8.07;1.25;;;;;;;17.85;64.11;99261.28;5072078;28;20067;-81
2022/06/28 16:40:43;;;;;;;6.35;1.70;;;;;;;17.68;64.06;99259.19;5061319;28;20064;-81
2022/06/28 16:43:09;;;;;;;9.50;1.15;;;;;;;17.55;64.59;99259.31;5067076;28;20039;-81
2022/06/28 16:45:35;;;;;;;8.82;2.42;;;;;;;17.44;64.90;99256.31;5049164;28;20037;-80
2022/06/28 16:48:00;;;;;;;5.30;1.05;;;;;;;17.33;65.02;99244.50;5051554;28;20033;-81
2022/06/28 16:50:26;;;;;;;9.13;1.55;;;;;;;17.26;65.81;99253.59;5067129;28;20020;-81
2022/06/28 16:52:53;;;;;;;4.35;0.82;;;;;;;17.21;66.00;99263.09;5051725;28;20029;-81
2022/06/28 16:55:19;;;;;;;10.23;1.52;;;;;;;17.27;66.36;99263.25;5053247;28;20078;-81
2022/06/28 16:57:45;;;;;;;8.23;1.70;;;;;;;17.32;66.54;99264.25;5071467;28;20440;-81
2022/06/28 17:00:16;;;;;;;6.97;1.13;;;;;;;17.32;66.14;99260.75;5052060;28;20024;-81
2022/06/28 17:02:44;;;;;;;8.18;1.58;;;;;;;17.26;66.22;99272.31;5036993;28;20123;-80
2022/06/28 17:05:11;;;;;;;9.85;1.48;;;;;;;17.21;66.00;99259.59;5053015;28;20075;-81
2022/06/28 17:07:37;;;;;;;6.13;1.13;;;;;;;17.01;66.06;99265.88;5036479;28;20033;-81
2022/06/28 17:10:03;;;;;;;5.50;1.00;;;;;;;16.94;66.02;99273.94;5071868;28;20036;-81
2022/06/28 17:12:35;;;;;;;6.78;1.02;;;;;;;16.93;66.20;99277.63;5036285;28;20024;-81
2022/06/28 17:15:02;;;;;;;6.22;1.10;;;;;;;16.97;66.38;99267.34;5051289;28;20534;-81
2022/06/28 17:17:27;;;;;;;8.43;0.95;;;;;;;17.03;66.35;99279.00;5064807;28;20040;-81
2022/06/28 17:19:54;;;;;;;3.67;0.90;;;;;;;17.11;66.30;99268.91;5051820;28;20036;-81
2022/06/28 17:22:23;;;;;;;5.28;1.00;;;;;;;17.15;66.39;99266.63;5050277;28;20060;-81
2022/06/28 17:24:50;;;;;;;7.32;1.42;;;;;;;17.17;66.34;99264.56;5050876;28;20036;-81
2022/06/28 17:27:17;;;;;;;7.40;1.20;;;;;;;17.14;65.93;99278.34;5049762;28;20544;-75
2022/06/28 17:29:44;;;;;;;7.22;1.60;;;;;;;17.10;66.00;99277.16;5048525;28;20707;-74
2022/06/28 17:32:10;;;;;;;6.15;1.33;;;;;;;17.13;66.35;99276.72;5051704;28;20079;-81
2022/06/28 17:34:38;;;;;;;5.32;0.98;;;;;;;17.11;66.61;99268.91;5060903;28;20032;-81
2022/06/28 17:37:05;;;;;;;9.55;0.77;;;;;;;17.09;66.85;99273.66;5051184;28;20082;-81
2022/06/28 17:39:32;;;;;;;8.10;1.65;;;;;;;17.04;66.32;99272.66;5051721;28;20033;-81
2022/06/28 17:41:58;;;;;;;6.43;1.10;;;;;;;17.14;66.35;99272.19;5014295;28;20050;-75
2022/06/28 17:44:24;;;;;;;8.70;1.02;;;;;;;17.27;66.32;99269.41;5035682;28;20119;-75
2022/06/28 17:46:51;;;;;;;5.05;1.00;;;;;;;17.32;66.04;99258.91;5068715;28;20028;-81
2022/06/28 17:49:19;;;;;;;5.43;0.90;;;;;;;17.28;65.37;99267.56;5047728;28;20028;-81
2022/06/28 17:51:46;;;;;;;10.10;0.90;;;;;;;17.21;65.42;99263.09;5052410;28;20103;-81
2022/06/28 17:54:13;;;;;;;4.28;0.90;;;;;;;17.11;65.23;99268.91;5048501;28;20078;-81
2022/06/28 17:56:39;;;;;;;9.05;1.30;;;;;;;17.06;65.20;99267.88;5061612;28;20522;-80
2022/06/28 17:59:05;;;;;;;4.05;0.70;;;;;;;16.97;65.26;99270.84;5065770;28;20062;-81
2022/06/28 18:01:31;;;;;;;7.63;1.10;;;;;;;16.92;65.47;99278.66;5067168;28;20037;-75
2022/06/28 18:03:57;;;;;;;5.63;0.90;;;;;;;16.87;65.89;99281.16;5052145;28;20036;-75
2022/06/28 18:06:22;;;;;;;9.35;1.33;;;;;;;16.93;66.05;99274.94;5070486;28;20036;-81
2022/06/28 18:08:48;;;;;;;6.00;0.90;;;;;;;16.95;66.19;99274.75;5051027;28;20044;-81
2022/06/28 18:11:14;;;;;;;5.82;1.08;;;;;;;16.91;66.33;99269.03;5067518;28;20058;-81
2022/06/28 18:13:40;;;;;;;7.28;0.95;;;;;;;16.85;66.41;99283.25;5067652;28;20036;-80
2022/06/28 18:16:06;;;;;;;4.53;1.10;;;;;;;16.80;66.34;99283.06;5052143;28;20393;-81
2022/06/28 18:18:32;;;;;;;7.32;0.93;;;;;;;16.72;66.25;99282.25;5066840;28;20056;-81
2022/06/28 18:20:59;;;;;;;5.63;0.80;;;;;;;16.67;66.08;99282.09;5064485;28;20053;-81
2022/06/28 18:23:25;;;;;;;7.25;1.33;;;;;;;16.63;66.46;99288.88;5064278;28;20120;-81
2022/06/28 18:25:51;;;;;;;8.23;1.20;;;;;;;16.66;66.42;99296.47;5042421;28;20585;-81
2022/06/28 18:28:16;;;;;;;3.67;0.65;;;;;;;16.63;66.48;99299.53;5045969;28;20037;-81
2022/06/28 18:30:42;;;;;;;7.05;1.30;;;;;;;16.66;66.49;99298.31;5049545;28;20048;-80
2022/06/28 18:33:08;;;;;;;6.00;1.02;;;;;;;16.66;66.56;99295.66;5065847;28;20052;-81
2022/06/28 18:35:34;;;;;;;5.45;0.88;;;;;;;16.61;66.83;99304.31;5032944;28;20079;-80
2022/06/28 18:38:00;;;;;;;4.72;0.70;;;;;;;16.58;66.91;99302.06;5047594;28;20034;-81
2022/06/28 18:40:26;;;;;;;5.35;1.13;;;;;;;16.52;67.18;99308.22;5042534;28;20474;-81
2022/06/28 18:42:52;;;;;;;6.68;1.30;;;;;;;16.48;67.27;99313.97;5043000;28;20041;-81
2022/06/28 18:45:18;;;;;;;7.10;1.25;;;;;;;16.42;67.51;99306.81;5034812;28;20538;-81
2022/06/28 18:47:44;;;;;;;4.25;0.95;;;;;;;16.39;67.74;99322.44;5048794;28;20078;-80
2022/06/28 18:50:11;;;;;;;5.55;1.23;;;;;;;16.36;67.62;99315.66;5064937;28;20445;-80
2022/06/28 18:52:38;;;;;;;5.25;0.98;;;;;;;16.33;67.90;99322.25;5031622;28;20029;-80
2022/06/28 18:55:06;;;;;;;3.28;0.70;;;;;;;16.33;67.89;99330.25;5042964;28;20041;-81
2022/06/28 18:57:31;;;;;;;4.10;1.02;;;;;;;16.31;67.89;99328.81;5047438;28;20032;-82
2022/06/28 18:59:57;;;;;;;5.53;0.93;;;;;;;16.27;68.04;99328.41;5063966;28;20029;-81
2022/06/28 19:02:23;;;;;;;7.40;1.10;;;;;;;16.27;67.97;99327.59;5046379;28;20033;-75